Time;durP1;ratioP1;P1;durP2;ratioP2;P2;SDS_P1;SDS_P2;PMS_P1;PMS_P2;Temp;Humidity;BMP_temperature;BMP_pressure;BME280_temperature;BME280_humidity;BME280_pressure;Samples;Min_cycle;Max_cycle;Signal;HPM_P1;HPM_P2
2021/04/06 00:00:59;;;;;;;2.90;1.20;;;3.30;76.60;;;;;;5015276;28;20379;-68
2021/04/06 00:03:28;;;;;;;1.25;0.70;;;3.30;76.50;;;;;;5015286;28;20017;-68
2021/04/06 00:06:00;;;;;;;6.95;1.55;;;3.30;76.50;;;;;;5015278;28;20022;-68
2021/04/06 00:08:27;;;;;;;4.72;1.00;;;3.10;77.40;;;;;;5014637;28;20034;-68
2021/04/06 00:10:56;;;;;;;2.25;0.75;;;2.80;78.40;;;;;;5015093;28;20030;-68
2021/04/06 00:13:26;;;;;;;2.13;0.70;;;2.50;78.80;;;;;;5015052;28;20053;-68
2021/04/06 00:15:53;;;;;;;2.97;0.93;;;2.40;79.20;;;;;;5014808;28;20046;-68
2021/04/06 00:18:20;;;;;;;2.83;0.70;;;2.20;79.60;;;;;;5014977;28;20025;-68
2021/04/06 00:20:46;;;;;;;2.20;1.00;;;2.00;80.30;;;;;;5014897;28;20129;-67
2021/04/06 00:23:14;;;;;;;1.92;0.70;;;1.80;80.50;;;;;;5014633;28;20057;-68
2021/04/06 00:25:43;;;;;;;1.25;0.70;;;1.80;80.50;;;;;;5014638;28;20018;-67
2021/04/06 00:28:17;;;;;;;1.70;0.63;;;1.80;80.30;;;;;;5014748;28;20045;-68
2021/04/06 00:30:48;;;;;;;1.40;0.60;;;1.90;80.90;;;;;;5014853;28;20033;-67
2021/04/06 00:33:22;;;;;;;0.75;0.60;;;1.90;80.10;;;;;;5014796;28;20026;-68
2021/04/06 00:35:54;;;;;;;0.63;0.47;;;1.90;79.90;;;;;;5014683;28;20074;-68
2021/04/06 00:38:22;;;;;;;0.45;0.38;;;2.00;79.60;;;;;;5014276;28;20049;-68
2021/04/06 00:40:50;;;;;;;0.30;0.30;;;2.10;79.30;;;;;;5013219;28;20467;-68
2021/04/06 00:43:17;;;;;;;0.30;0.30;;;2.20;79.10;;;;;;5014554;28;20029;-68
2021/04/06 00:45:45;;;;;;;0.30;0.30;;;2.20;78.80;;;;;;5013827;28;20022;-68
2021/04/06 00:48:13;;;;;;;0.90;0.40;;;2.30;78.70;;;;;;5014397;28;20117;-68
2021/04/06 00:50:44;;;;;;;0.40;0.40;;;2.40;78.50;;;;;;5013790;28;20037;-68
2021/04/06 00:53:09;;;;;;;0.65;0.45;;;2.40;78.40;;;;;;5014406;28;20037;-68
2021/04/06 00:55:41;;;;;;;0.30;0.30;;;2.50;78.30;;;;;;5014210;28;20028;-68
2021/04/06 00:58:14;;;;;;;0.30;0.30;;;2.60;78.30;;;;;;5014342;28;20034;-68
2021/04/06 01:00:41;;;;;;;0.73;0.40;;;2.60;78.10;;;;;;5014269;28;20018;-68
2021/04/06 01:03:16;;;;;;;1.02;0.70;;;2.70;78.10;;;;;;5014074;28;20061;-68
2021/04/06 01:06:01;;;;;;;0.80;0.50;;;2.70;78.10;;;;;;5012373;28;20026;-67
2021/04/06 01:08:28;;;;;;;2.70;1.75;;;2.60;78.20;;;;;;5013957;28;20117;-68
2021/04/06 01:10:54;;;;;;;0.40;0.40;;;2.60;78.50;;;;;;5013998;28;20109;-68
2021/04/06 01:13:22;;;;;;;2.47;1.00;;;2.50;78.70;;;;;;5014020;28;20032;-68
2021/04/06 01:15:48;;;;;;;1.05;0.90;;;2.50;79.00;;;;;;5016826;28;20090;-67
2021/04/06 01:18:15;;;;;;;2.22;0.73;;;2.40;79.10;;;;;;5013821;28;20033;-68
2021/04/06 01:20:40;;;;;;;1.08;0.55;;;2.50;79.20;;;;;;5013518;28;20018;-68
2021/04/06 01:23:09;;;;;;;0.85;0.70;;;2.40;79.30;;;;;;5013845;28;20034;-68
2021/04/06 01:25:41;;;;;;;0.90;0.43;;;2.40;79.40;;;;;;5013755;28;20010;-68
2021/04/06 01:28:11;;;;;;;1.75;0.90;;;2.40;79.40;;;;;;5013521;28;20045;-67
2021/04/06 01:30:46;;;;;;;1.60;0.90;;;2.40;79.40;;;;;;5012740;28;20022;-67
2021/04/06 01:33:21;;;;;;;2.85;0.90;;;2.50;79.20;;;;;;5017080;28;20104;-67
2021/04/06 01:35:48;;;;;;;2.88;0.70;;;2.50;79.20;;;;;;5013318;28;20512;-67
2021/04/06 01:38:16;;;;;;;1.42;0.52;;;2.50;79.20;;;;;;5013545;28;20029;-67
2021/04/06 01:40:42;;;;;;;3.47;1.15;;;2.50;79.30;;;;;;5013389;28;20030;-67
2021/04/06 01:43:09;;;;;;;0.60;0.60;;;2.40;79.40;;;;;;4995816;28;20021;-68
2021/04/06 01:45:43;;;;;;;1.30;1.20;;;2.40;79.60;;;;;;5013414;28;20029;-67
2021/04/06 01:48:09;;;;;;;0.90;0.77;;;2.40;79.80;;;;;;5013281;28;20509;-67
2021/04/06 01:50:35;;;;;;;4.78;3.33;;;2.30;79.80;;;;;;5013049;28;20024;-68
2021/04/06 01:53:01;;;;;;;4.85;1.50;;;2.40;80.00;;;;;;5013112;28;20029;-67
2021/04/06 01:55:32;;;;;;;2.10;1.05;;;2.40;80.00;;;;;;5013100;28;20045;-67
2021/04/06 01:57:58;;;;;;;2.55;0.77;;;2.40;79.90;;;;;;5012452;28;20038;-68
2021/04/06 02:03:12;;;;;;;2.30;1.30;;;2.50;79.70;;;;;;5012651;28;20117;-69
2021/04/06 02:05:37;;;;;;;1.85;0.68;;;2.50;79.70;;;;;;5013015;28;20477;-68
2021/04/06 02:08:11;;;;;;;0.65;0.50;;;2.50;79.60;;;;;;5013166;28;20092;-67
2021/04/06 02:10:37;;;;;;;3.75;1.30;;;2.60;79.70;;;;;;5012894;28;20076;-67
2021/04/06 02:13:12;;;;;;;4.15;1.52;;;2.50;79.70;;;;;;5012883;28;20038;-68
2021/04/06 02:15:40;;;;;;;1.85;1.30;;;2.50;79.90;;;;;;5011453;28;20375;-67
2021/04/06 02:18:06;;;;;;;1.75;0.88;;;2.50;79.90;;;;;;5012471;28;20041;-67
2021/04/06 02:20:31;;;;;;;2.55;0.80;;;2.50;79.80;;;;;;5012922;28;20052;-67
2021/04/06 02:22:59;;;;;;;1.17;1.00;;;2.50;79.90;;;;;;5012805;28;20068;-68
2021/04/06 02:25:26;;;;;;;2.67;0.90;;;2.50;80.00;;;;;;5012694;28;20105;-70
2021/04/06 02:27:52;;;;;;;1.52;0.85;;;2.40;80.10;;;;;;5012718;28;20360;-68
2021/04/06 02:30:17;;;;;;;1.45;1.20;;;2.40;80.00;;;;;;5012730;28;20024;-70
2021/04/06 02:32:43;;;;;;;3.67;1.23;;;2.40;80.20;;;;;;5012262;28;20026;-68
2021/04/06 02:35:13;;;;;;;2.28;0.98;;;2.40;80.30;;;;;;5012485;28;20022;-68
2021/04/06 02:37:42;;;;;;;0.55;0.55;;;2.40;80.30;;;;;;5012856;28;20021;-68
2021/04/06 02:40:10;;;;;;;1.95;0.90;;;2.30;80.30;;;;;;5012599;28;20032;-67
2021/04/06 02:42:38;;;;;;;2.58;0.90;;;2.30;80.20;;;;;;5011255;28;20390;-68
2021/04/06 02:45:07;;;;;;;1.33;0.60;;;2.30;80.20;;;;;;5012484;28;20026;-68
2021/04/06 02:47:39;;;;;;;1.73;1.60;;;2.30;80.30;;;;;;5011914;28;20389;-67
2021/04/06 02:50:07;;;;;;;2.60;1.02;;;2.30;80.90;;;;;;5012607;28;20049;-68
2021/04/06 02:52:35;;;;;;;4.20;1.05;;;2.30;80.20;;;;;;5012521;28;20310;-67
2021/04/06 02:55:01;;;;;;;0.85;0.80;;;2.30;80.30;;;;;;5012397;28;20026;-70
2021/04/06 02:57:26;;;;;;;2.65;0.70;;;2.30;80.30;;;;;;5012437;28;20026;-67
2021/04/06 02:59:53;;;;;;;1.90;0.88;;;2.30;80.20;;;;;;5012356;28;20026;-68
2021/04/06 03:02:20;;;;;;;2.72;1.15;;;2.40;80.00;;;;;;5012313;28;20021;-68
2021/04/06 03:04:47;;;;;;;2.58;1.20;;;2.30;79.90;;;;;;5012368;28;20025;-68
2021/04/06 03:07:20;;;;;;;4.00;1.52;;;2.30;80.10;;;;;;5012290;28;20029;-68
2021/04/06 03:09:57;;;;;;;3.00;1.10;;;2.30;80.00;;;;;;5014637;28;20030;-68
2021/04/06 03:12:30;;;;;;;5.53;1.83;;;2.40;80.00;;;;;;5016154;28;20022;-67
2021/04/06 03:14:57;;;;;;;2.72;1.30;;;2.40;80.00;;;;;;5015987;28;20167;-67
2021/04/06 03:17:24;;;;;;;2.35;0.88;;;2.30;80.20;;;;;;5015653;28;20041;-68
2021/04/06 03:19:58;;;;;;;3.28;1.10;;;2.20;80.40;;;;;;5016125;28;20032;-68
2021/04/06 03:22:25;;;;;;;2.13;1.10;;;2.10;80.50;;;;;;5015952;28;20571;-67
2021/04/06 03:24:51;;;;;;;1.75;0.77;;;2.10;80.70;;;;;;5015904;28;20378;-68
2021/04/06 03:27:27;;;;;;;1.42;1.10;;;2.10;80.80;;;;;;5015876;28;20512;-67
2021/04/06 03:29:53;;;;;;;2.13;1.17;;;2.20;80.60;;;;;;5015944;28;20030;-68
2021/04/06 03:32:20;;;;;;;0.93;0.63;;;2.00;80.60;;;;;;5018556;28;20091;-67
2021/04/06 03:34:46;;;;;;;2.78;1.52;;;1.90;80.90;;;;;;5015817;28;20041;-68
2021/04/06 03:37:12;;;;;;;0.73;0.70;;;1.80;81.20;;;;;;5015739;28;20026;-67
2021/04/06 03:39:38;;;;;;;1.42;0.65;;;1.70;81.20;;;;;;5014313;28;20028;-68
2021/04/06 03:42:04;;;;;;;0.60;0.40;;;1.70;81.30;;;;;;5015833;28;20025;-70
2021/04/06 03:44:31;;;;;;;0.30;0.30;;;1.60;81.40;;;;;;5015512;28;20018;-69
2021/04/06 03:47:00;;;;;;;1.48;0.73;;;1.60;81.30;;;;;;5015594;28;20053;-70
2021/04/06 03:49:27;;;;;;;0.50;0.50;;;1.60;81.30;;;;;;5015527;28;20429;-67
2021/04/06 03:51:55;;;;;;;0.47;0.40;;;1.60;81.20;;;;;;5015508;28;20164;-68
2021/04/06 03:54:47;;;;;;;1.45;0.57;;;1.60;81.10;;;;;;5015420;28;20041;-68
2021/04/06 03:57:39;;;;;;;0.47;0.47;;;1.60;81.10;;;;;;5015524;28;20033;-67
2021/04/06 04:00:09;;;;;;;0.50;0.50;;;1.60;81.00;;;;;;5015041;28;20032;-68
2021/04/06 04:02:35;;;;;;;;;;;1.60;80.90;;;;;;5015595;28;20049;-70
2021/04/06 04:05:01;;;;;;;0.95;0.93;;;1.60;80.60;;;;;;5015305;28;19939;-68
2021/04/06 04:07:27;;;;;;;0.95;0.80;;;1.60;80.60;;;;;;5015253;28;20041;-70
2021/04/06 04:09:52;;;;;;;0.98;0.50;;;1.70;80.60;;;;;;5015217;28;20026;-68
2021/04/06 04:12:18;;;;;;;0.45;0.45;;;1.60;80.60;;;;;;5015071;28;20026;-67
2021/04/06 04:14:43;;;;;;;1.35;0.57;;;1.60;80.80;;;;;;5014303;28;20112;-67
2021/04/06 04:17:10;;;;;;;0.30;0.30;;;1.60;80.80;;;;;;5014958;28;20046;-68
2021/04/06 04:19:36;;;;;;;0.40;0.22;;;1.60;80.90;;;;;;5015134;28;20018;-68
2021/04/06 04:22:03;;;;;;;0.93;0.60;;;1.70;80.90;;;;;;5014119;28;20033;-68
2021/04/06 04:24:28;;;;;;;0.60;0.60;;;1.60;80.90;;;;;;5014917;28;20029;-68
2021/04/06 04:26:54;;;;;;;1.00;0.60;;;1.70;81.10;;;;;;5014862;28;20022;-70
2021/04/06 04:29:19;;;;;;;0.73;0.73;;;1.70;81.00;;;;;;5014265;28;20371;-70
2021/04/06 04:31:47;;;;;;;1.00;0.70;;;1.70;80.90;;;;;;5014630;28;20048;-68
2021/04/06 04:34:12;;;;;;;1.52;0.98;;;1.70;80.90;;;;;;5014677;28;20022;-68
2021/04/06 04:36:38;;;;;;;0.55;0.40;;;1.70;80.80;;;;;;5014649;28;20030;-67
2021/04/06 04:39:04;;;;;;;0.52;0.47;;;1.80;80.90;;;;;;5014620;28;20028;-67
2021/04/06 04:41:30;;;;;;;1.73;0.80;;;1.80;80.70;;;;;;5014625;28;20037;-67
2021/04/06 04:43:55;;;;;;;1.13;0.50;;;1.80;80.70;;;;;;5013950;28;20022;-68
2021/04/06 04:46:21;;;;;;;0.70;0.70;;;1.80;80.70;;;;;;5014447;28;20109;-68
2021/04/06 04:48:47;;;;;;;0.45;0.40;;;1.80;80.70;;;;;;5014296;28;20040;-68
2021/04/06 04:51:12;;;;;;;1.75;0.73;;;1.90;80.60;;;;;;5013155;28;20112;-68
2021/04/06 04:53:38;;;;;;;0.93;0.40;;;1.90;80.60;;;;;;5014407;28;20026;-67
2021/04/06 04:56:03;;;;;;;1.35;0.57;;;2.00;80.60;;;;;;5014163;28;20018;-70
2021/04/06 04:58:29;;;;;;;0.30;0.30;;;2.00;80.40;;;;;;5014055;28;20037;-68
2021/04/06 05:00:54;;;;;;;1.13;0.55;;;2.10;80.40;;;;;;5014099;28;20037;-68
2021/04/06 05:03:20;;;;;;;0.40;0.40;;;2.10;80.40;;;;;;5014135;28;20545;-68
2021/04/06 05:05:45;;;;;;;0.40;0.38;;;2.20;80.40;;;;;;5013928;28;20101;-68
2021/04/06 05:08:11;;;;;;;0.40;0.40;;;2.30;80.30;;;;;;5012721;28;20060;-68
2021/04/06 05:10:36;;;;;;;1.45;0.60;;;2.20;80.30;;;;;;5013989;28;20364;-68
2021/04/06 05:13:02;;;;;;;1.20;0.32;;;2.10;80.50;;;;;;5013470;28;20451;-68
2021/04/06 05:15:30;;;;;;;1.02;0.65;;;2.00;80.70;;;;;;5013505;28;20050;-68
2021/04/06 05:17:56;;;;;;;0.35;0.35;;;2.00;80.90;;;;;;5013873;28;20033;-69
2021/04/06 05:20:22;;;;;;;0.47;0.43;;;1.90;80.90;;;;;;5013872;28;20093;-68
2021/04/06 05:22:47;;;;;;;0.30;0.30;;;1.90;81.10;;;;;;5013811;28;20113;-68
2021/04/06 05:25:13;;;;;;;0.38;0.38;;;1.90;81.00;;;;;;5013753;28;20069;-68
2021/04/06 05:27:39;;;;;;;0.35;0.32;;;1.90;81.10;;;;;;5013137;28;20029;-67
2021/04/06 05:30:05;;;;;;;0.38;0.22;;;1.80;81.00;;;;;;5013498;28;20033;-69
2021/04/06 05:32:31;;;;;;;0.73;0.45;;;1.80;81.00;;;;;;5014702;28;20022;-69
2021/04/06 05:34:56;;;;;;;0.40;0.40;;;1.80;81.10;;;;;;5015277;28;20044;-70
2021/04/06 05:37:22;;;;;;;0.38;0.38;;;1.80;81.10;;;;;;5013526;28;20044;-69
2021/04/06 05:39:47;;;;;;;0.28;0.28;;;1.70;81.10;;;;;;5013444;28;20471;-70
2021/04/06 05:42:14;;;;;;;0.47;0.43;;;1.70;81.10;;;;;;5012915;28;20478;-69
2021/04/06 05:44:42;;;;;;;0.45;0.45;;;1.70;81.10;;;;;;5013302;28;20029;-69
2021/04/06 05:47:26;;;;;;;0.68;0.57;;;1.70;81.10;;;;;;5013508;28;20021;-70
2021/04/06 05:49:53;;;;;;;0.38;0.32;;;1.70;81.10;;;;;;5013371;28;20044;-70
2021/04/06 05:52:19;;;;;;;0.57;0.50;;;1.70;81.10;;;;;;5013284;28;20026;-70
2021/04/06 05:54:45;;;;;;;0.85;0.45;;;1.60;81.00;;;;;;5013187;28;20017;-69
2021/04/06 05:57:11;;;;;;;0.65;0.47;;;1.60;81.00;;;;;;5011590;28;20177;-69
2021/04/06 05:59:36;;;;;;;0.50;0.50;;;1.70;81.00;;;;;;5013203;28;20490;-67
2021/04/06 06:02:02;;;;;;;0.70;0.57;;;1.70;81.00;;;;;;5013067;28;20576;-67
2021/04/06 06:04:28;;;;;;;1.70;0.80;;;1.70;80.90;;;;;;5013067;28;20026;-68
2021/04/06 06:06:54;;;;;;;0.50;0.50;;;1.80;80.90;;;;;;5011760;28;20033;-68
2021/04/06 06:09:34;;;;;;;1.25;0.32;;;1.80;80.80;;;;;;5012833;28;20038;-68
2021/04/06 06:12:08;;;;;;;2.08;0.57;;;2.00;80.60;;;;;;5012941;28;20105;-68
2021/04/06 06:14:41;;;;;;;0.43;0.40;;;2.10;80.40;;;;;;5012872;28;20034;-68
2021/04/06 06:17:21;;;;;;;0.38;0.22;;;2.30;80.20;;;;;;5021212;28;20425;-68
2021/04/06 06:19:51;;;;;;;0.30;0.30;;;2.40;80.00;;;;;;5030696;28;20087;-68
2021/04/06 06:22:20;;;;;;;0.40;0.30;;;2.40;80.00;;;;;;5030241;28;20036;-68
2021/04/06 06:24:48;;;;;;;0.55;0.55;;;2.30;80.10;;;;;;5030515;28;20025;-67
2021/04/06 06:27:35;;;;;;;1.17;0.50;;;2.30;80.20;;;;;;5032307;28;20021;-68
2021/04/06 06:30:30;;;;;;;1.30;0.50;;;2.40;80.30;;;;;;5032317;28;20044;-68
2021/04/06 06:33:17;;;;;;;0.65;0.43;;;2.50;80.00;;;;;;5032408;28;20052;-68
2021/04/06 06:35:45;;;;;;;0.52;0.50;;;2.60;79.90;;;;;;5032240;28;20033;-68
2021/04/06 06:38:16;;;;;;;0.20;0.20;;;2.70;79.80;;;;;;5032064;28;20045;-68
2021/04/06 06:40:43;;;;;;;0.93;0.80;;;2.80;79.80;;;;;;5031720;28;20030;-68
2021/04/06 06:43:17;;;;;;;1.73;0.68;;;2.90;79.60;;;;;;5031817;28;20100;-68
2021/04/06 06:45:44;;;;;;;1.38;0.93;;;2.90;79.50;;;;;;5032042;28;20029;-68
2021/04/06 06:48:23;;;;;;;0.85;0.60;;;2.90;79.80;;;;;;5032058;28;20061;-68
2021/04/06 06:50:49;;;;;;;1.08;0.73;;;2.80;80.00;;;;;;5011158;28;20108;-70
2021/04/06 06:53:35;;;;;;;0.63;0.40;;;2.80;80.20;;;;;;5011795;28;20061;-67
2021/04/06 06:56:05;;;;;;;2.90;0.77;;;2.90;80.30;;;;;;5012452;28;20029;-67
2021/04/06 06:58:35;;;;;;;0.77;0.75;;;3.10;80.00;;;;;;5012307;28;20033;-67
2021/04/06 07:01:02;;;;;;;1.25;1.13;;;3.30;79.60;;;;;;5012387;28;20022;-68
2021/04/06 07:03:27;;;;;;;0.75;0.60;;;3.30;79.30;;;;;;5012212;28;20084;-67
2021/04/06 07:05:53;;;;;;;2.08;0.50;;;3.20;79.50;;;;;;5012173;28;20030;-67
2021/04/06 07:08:30;;;;;;;3.97;0.80;;;3.20;79.80;;;;;;5011648;28;20034;-68
2021/04/06 07:10:58;;;;;;;2.47;0.70;;;3.20;79.80;;;;;;5010960;28;20028;-68
2021/04/06 07:13:28;;;;;;;2.20;0.68;;;3.20;79.90;;;;;;5012097;28;20466;-68
2021/04/06 07:15:55;;;;;;;0.60;0.57;;;3.10;80.30;;;;;;5015613;28;20045;-68
2021/04/06 07:18:24;;;;;;;4.07;1.13;;;2.90;80.60;;;;;;5031705;28;20496;-68
2021/04/06 07:21:04;;;;;;;0.80;0.80;;;2.80;80.90;;;;;;5032218;28;20024;-69
2021/04/06 07:23:35;;;;;;;;;;;2.70;81.10;;;;;;5031897;28;20057;-68
2021/04/06 07:26:06;;;;;;;1.15;0.70;;;2.70;81.10;;;;;;5031833;28;19905;-68
2021/04/06 07:28:32;;;;;;;0.50;0.50;;;2.70;81.10;;;;;;5031563;28;20029;-68
2021/04/06 07:30:58;;;;;;;1.65;0.60;;;2.80;80.90;;;;;;5032101;28;20026;-68
2021/04/06 07:33:24;;;;;;;1.08;0.50;;;2.90;80.70;;;;;;5030018;28;20032;-69
2021/04/06 07:35:51;;;;;;;0.70;0.70;;;2.90;80.50;;;;;;5011760;28;20022;-68
2021/04/06 07:38:17;;;;;;;1.85;0.50;;;2.90;80.50;;;;;;5011669;28;20429;-69
2021/04/06 07:40:43;;;;;;;2.63;1.60;;;3.00;80.60;;;;;;5011822;28;20025;-69
2021/04/06 07:43:09;;;;;;;2.08;0.98;;;3.20;80.50;;;;;;5010633;28;20018;-68
2021/04/06 07:45:39;;;;;;;1.95;1.20;;;3.30;80.20;;;;;;5011885;28;20022;-68
2021/04/06 07:48:05;;;;;;;1.38;0.75;;;3.60;79.80;;;;;;5011877;28;20034;-69
2021/04/06 07:50:43;;;;;;;1.17;0.85;;;3.70;79.20;;;;;;5011701;28;20030;-69
2021/04/06 07:53:25;;;;;;;1.90;1.58;;;3.90;79.00;;;;;;5011640;28;20106;-69
2021/04/06 07:55:52;;;;;;;2.53;1.10;;;4.00;79.10;;;;;;5012392;28;20029;-68
2021/04/06 07:58:47;;;;;;;1.88;1.17;;;4.10;78.90;;;;;;5015312;28;20072;-68
2021/04/06 08:01:17;;;;;;;1.83;0.90;;;4.10;78.80;;;;;;5015218;28;20064;-69
2021/04/06 08:04:00;;;;;;;2.25;1.67;;;4.00;79.00;;;;;;5015053;28;20033;-68
2021/04/06 08:06:28;;;;;;;1.65;0.80;;;3.80;79.40;;;;;;5027062;28;20026;-68
2021/04/06 08:08:54;;;;;;;1.48;0.95;;;3.60;80.10;;;;;;5034771;28;20136;-69
2021/04/06 08:11:33;;;;;;;2.15;0.90;;;3.50;80.20;;;;;;5033557;28;20112;-68
2021/04/06 08:13:59;;;;;;;3.00;1.35;;;3.50;80.30;;;;;;5034803;28;20029;-69
2021/04/06 08:16:24;;;;;;;2.58;1.23;;;3.40;80.30;;;;;;5034327;28;20475;-69
2021/04/06 08:18:51;;;;;;;0.93;0.73;;;3.40;80.40;;;;;;5034670;28;20038;-69
2021/04/06 08:21:18;;;;;;;1.77;0.90;;;3.50;80.30;;;;;;5034147;28;20021;-68
2021/04/06 08:23:48;;;;;;;0.82;0.60;;;3.60;80.00;;;;;;5034274;28;20021;-68
2021/04/06 08:26:28;;;;;;;3.63;0.95;;;3.70;79.60;;;;;;5034606;28;20022;-68
2021/04/06 08:28:54;;;;;;;1.40;0.90;;;3.90;79.00;;;;;;5034323;28;20029;-69
2021/04/06 08:31:29;;;;;;;4.55;1.52;;;4.10;78.80;;;;;;5027250;28;20322;-68
2021/04/06 08:34:28;;;;;;;0.98;0.90;;;4.30;78.30;;;;;;5029537;28;20033;-68
2021/04/06 08:37:11;;;;;;;3.45;0.90;;;4.40;78.00;;;;;;5027876;28;20032;-69
2021/04/06 08:39:38;;;;;;;1.67;0.82;;;4.30;77.90;;;;;;5014348;28;20049;-68
2021/04/06 08:42:05;;;;;;;0.90;0.90;;;4.10;78.50;;;;;;5014478;28;20386;-68
2021/04/06 08:44:33;;;;;;;1.17;1.02;;;4.00;78.90;;;;;;5014219;28;20018;-69
2021/04/06 08:46:58;;;;;;;0.68;0.57;;;4.10;78.90;;;;;;5013071;28;20014;-68
2021/04/06 08:49:25;;;;;;;0.43;0.43;;;4.20;78.80;;;;;;5022325;28;20545;-68
2021/04/06 08:51:56;;;;;;;0.73;0.70;;;4.20;78.50;;;;;;5033907;28;20025;-68
2021/04/06 08:54:25;;;;;;;2.08;0.90;;;4.40;78.40;;;;;;5034109;28;20080;-68
2021/04/06 08:57:02;;;;;;;2.25;0.93;;;4.50;77.90;;;;;;5034090;28;20104;-68
2021/04/06 08:59:32;;;;;;;3.53;1.10;;;4.80;77.40;;;;;;5031532;28;20017;-68
2021/04/06 09:02:02;;;;;;;0.90;0.80;;;4.90;77.20;;;;;;5023145;28;20093;-69
2021/04/06 09:04:30;;;;;;;1.05;0.90;;;4.80;77.30;;;;;;5033505;28;20475;-67
2021/04/06 09:06:56;;;;;;;0.57;0.57;;;4.70;77.50;;;;;;5032756;28;20070;-68
2021/04/06 09:09:27;;;;;;;0.75;0.75;;;4.50;78.00;;;;;;5033714;28;20037;-67
2021/04/06 09:11:55;;;;;;;0.55;0.55;;;4.30;78.40;;;;;;5033284;28;20037;-69
2021/04/06 09:14:23;;;;;;;2.42;0.52;;;4.10;78.90;;;;;;5033664;28;20041;-68
2021/04/06 09:16:54;;;;;;;0.40;0.40;;;4.10;79.10;;;;;;5033455;28;20482;-68
2021/04/06 09:19:21;;;;;;;0.88;0.70;;;4.10;79.70;;;;;;5033220;28;20025;-69
2021/04/06 09:21:53;;;;;;;1.05;0.80;;;4.10;78.90;;;;;;5033371;28;20111;-69
2021/04/06 09:24:20;;;;;;;0.45;0.45;;;4.10;78.70;;;;;;5032247;28;20017;-68
2021/04/06 09:26:46;;;;;;;1.42;1.02;;;4.10;78.50;;;;;;5033230;28;20470;-68
2021/04/06 09:29:18;;;;;;;1.55;0.90;;;4.20;78.30;;;;;;5033249;28;20193;-68
2021/04/06 09:31:50;;;;;;;1.85;1.08;;;4.30;78.20;;;;;;5033293;28;20013;-68
2021/04/06 09:34:36;;;;;;;0.60;0.60;;;4.50;77.70;;;;;;5032911;28;20200;-68
2021/04/06 09:37:27;;;;;;;2.03;0.57;;;4.80;77.30;;;;;;5033245;28;20447;-69
2021/04/06 09:39:54;;;;;;;0.85;0.60;;;5.20;76.40;;;;;;5033101;28;20033;-68
2021/04/06 09:42:20;;;;;;;0.98;0.55;;;5.40;76.30;;;;;;5033320;28;20024;-68
2021/04/06 09:44:48;;;;;;;0.68;0.60;;;5.50;76.00;;;;;;5033158;28;20038;-68
2021/04/06 09:47:19;;;;;;;1.88;0.77;;;5.40;76.10;;;;;;5032591;28;20029;-69
2021/04/06 09:49:47;;;;;;;1.35;0.70;;;4.80;77.10;;;;;;5031651;28;20033;-69
2021/04/06 09:52:19;;;;;;;1.10;0.73;;;4.30;78.30;;;;;;5032906;28;20026;-68
2021/04/06 09:54:55;;;;;;;1.65;1.10;;;4.00;79.10;;;;;;5032922;28;20032;-68
2021/04/06 09:57:32;;;;;;;1.25;0.65;;;4.00;79.30;;;;;;5032667;28;20045;-69
2021/04/06 09:59:59;;;;;;;0.63;0.63;;;4.00;79.10;;;;;;5026562;28;20029;-69
2021/04/06 10:02:27;;;;;;;0.40;0.40;;;4.00;79.00;;;;;;5031680;28;20030;-68
2021/04/06 10:04:53;;;;;;;0.50;0.50;;;4.10;78.80;;;;;;5032219;28;20087;-69
2021/04/06 10:07:32;;;;;;;0.50;0.50;;;4.10;78.20;;;;;;5032543;28;20021;-68
2021/04/06 10:10:10;;;;;;;2.45;0.70;;;4.20;78.20;;;;;;5032870;28;20044;-68
2021/04/06 10:12:35;;;;;;;0.98;0.90;;;4.20;78.10;;;;;;5032702;28;20470;-69
2021/04/06 10:15:02;;;;;;;0.55;0.50;;;4.20;77.90;;;;;;5030575;28;20037;-70
2021/04/06 10:17:39;;;;;;;0.47;0.40;;;4.30;77.80;;;;;;5031601;28;20434;-68
2021/04/06 10:20:10;;;;;;;0.75;0.50;;;4.40;77.60;;;;;;5030488;28;20100;-68
2021/04/06 10:22:43;;;;;;;1.05;0.63;;;4.60;77.30;;;;;;5032523;28;20068;-68
2021/04/06 10:25:10;;;;;;;0.60;0.60;;;4.90;76.90;;;;;;5032319;28;20053;-68
2021/04/06 10:27:41;;;;;;;1.17;0.70;;;5.10;76.50;;;;;;5030270;28;20104;-68
2021/04/06 10:30:12;;;;;;;1.55;0.70;;;5.50;75.70;;;;;;5032014;28;20033;-68
2021/04/06 10:32:40;;;;;;;1.15;1.00;;;5.80;75.10;;;;;;5031999;28;20123;-68
2021/04/06 10:35:27;;;;;;;1.30;1.20;;;6.00;74.90;;;;;;5032065;28;20097;-69
2021/04/06 10:38:00;;;;;;;0.93;0.90;;;6.10;74.50;;;;;;5032155;28;20374;-69
2021/04/06 10:40:34;;;;;;;0.77;0.77;;;6.30;74.40;;;;;;5031850;28;20433;-68
2021/04/06 10:43:03;;;;;;;2.22;0.90;;;6.40;74.50;;;;;;5032023;28;20018;-69
2021/04/06 10:45:31;;;;;;;1.23;0.98;;;6.50;74.20;;;;;;5030406;28;20417;-68
2021/04/06 10:48:12;;;;;;;2.08;1.08;;;6.60;73.70;;;;;;5031879;28;20021;-68
2021/04/06 10:50:42;;;;;;;1.75;0.90;;;6.50;73.60;;;;;;5032149;28;20034;-68
2021/04/06 10:53:17;;;;;;;1.13;0.90;;;6.10;74.20;;;;;;5032114;28;20072;-69
2021/04/06 10:55:43;;;;;;;5.43;1.20;;;5.60;74.90;;;;;;5032215;28;20064;-68
2021/04/06 10:58:09;;;;;;;0.85;0.70;;;5.00;76.30;;;;;;5032012;28;20053;-68
2021/04/06 11:00:37;;;;;;;1.02;0.70;;;4.30;77.50;;;;;;5031766;28;20025;-68
2021/04/06 11:03:14;;;;;;;0.85;0.55;;;4.10;78.40;;;;;;5032046;28;20052;-68
2021/04/06 11:05:40;;;;;;;0.88;0.70;;;3.90;78.50;;;;;;5032091;28;20079;-68
2021/04/06 11:08:26;;;;;;;0.88;0.80;;;3.80;78.50;;;;;;5031981;28;20057;-68
2021/04/06 11:10:54;;;;;;;0.40;0.40;;;3.80;78.50;;;;;;5032233;28;20032;-68
2021/04/06 11:13:21;;;;;;;0.43;0.40;;;3.90;78.30;;;;;;5031943;28;20030;-68
2021/04/06 11:15:48;;;;;;;1.38;0.73;;;4.10;77.90;;;;;;5031364;28;20064;-69
2021/04/06 11:18:14;;;;;;;1.80;0.60;;;4.30;77.30;;;;;;5030627;28;20029;-68
2021/04/06 11:20:41;;;;;;;0.43;0.43;;;4.60;76.80;;;;;;5032019;28;20051;-68
2021/04/06 11:23:06;;;;;;;0.30;0.30;;;4.80;76.40;;;;;;5030643;28;20075;-69
2021/04/06 11:25:33;;;;;;;2.67;0.80;;;5.20;75.60;;;;;;5031902;28;20500;-69
2021/04/06 11:27:59;;;;;;;1.25;0.75;;;5.40;74.60;;;;;;5031857;28;20108;-68
2021/04/06 11:30:32;;;;;;;1.05;0.70;;;5.60;74.50;;;;;;5030648;28;20040;-67
2021/04/06 11:32:59;;;;;;;0.60;0.60;;;5.80;74.80;;;;;;5017471;28;20101;-68
2021/04/06 11:35:24;;;;;;;0.93;0.68;;;6.20;73.80;;;;;;5015744;28;20207;-68
2021/04/06 11:37:50;;;;;;;1.23;0.70;;;6.50;73.30;;;;;;5015625;28;20515;-69
2021/04/06 11:40:15;;;;;;;1.98;1.00;;;6.60;73.20;;;;;;5015675;28;20145;-69
2021/04/06 11:42:41;;;;;;;2.53;1.77;;;6.30;73.40;;;;;;5015607;28;20026;-69
2021/04/06 11:45:07;;;;;;;0.68;0.50;;;5.40;75.10;;;;;;5015204;28;20101;-68
2021/04/06 11:47:33;;;;;;;0.52;0.40;;;4.40;77.40;;;;;;5014258;28;20026;-68
2021/04/06 11:49:59;;;;;;;0.40;0.40;;;3.70;78.80;;;;;;5015521;28;20029;-68
2021/04/06 11:52:24;;;;;;;0.38;0.38;;;3.30;79.50;;;;;;5015461;28;20028;-68
2021/04/06 11:54:50;;;;;;;0.30;0.30;;;3.10;79.60;;;;;;5015440;28;20570;-68
2021/04/06 11:57:15;;;;;;;0.52;0.47;;;3.00;79.30;;;;;;5015418;28;20109;-68
2021/04/06 11:59:41;;;;;;;0.50;0.43;;;2.90;79.10;;;;;;5014785;28;20025;-68
2021/04/06 12:02:07;;;;;;;0.22;0.22;;;2.90;79.60;;;;;;5015469;28;20033;-68
2021/04/06 12:04:33;;;;;;;0.30;0.30;;;2.90;78.90;;;;;;5015277;28;20037;-68
2021/04/06 12:06:58;;;;;;;0.20;0.20;;;2.90;79.00;;;;;;5015159;28;20026;-68
2021/04/06 12:09:24;;;;;;;0.40;0.40;;;3.10;78.60;;;;;;5013254;28;20030;-68
2021/04/06 12:11:49;;;;;;;0.47;0.47;;;3.30;78.00;;;;;;5034805;28;20092;-68
2021/04/06 12:14:15;;;;;;;0.47;0.45;;;3.50;77.40;;;;;;5033180;28;20037;-68
2021/04/06 12:16:40;;;;;;;1.38;0.50;;;3.60;77.20;;;;;;5034487;28;20045;-68
2021/04/06 12:19:06;;;;;;;0.63;0.60;;;3.90;77.00;;;;;;5034787;28;20037;-68
2021/04/06 12:21:31;;;;;;;1.75;0.43;;;4.20;76.40;;;;;;5034776;28;20043;-67
2021/04/06 12:23:57;;;;;;;0.40;0.40;;;4.30;76.10;;;;;;5034727;28;20037;-68
2021/04/06 12:26:23;;;;;;;0.40;0.40;;;4.70;75.90;;;;;;5034600;28;20497;-68
2021/04/06 12:28:48;;;;;;;0.50;0.50;;;5.30;75.10;;;;;;5034244;28;20375;-68
2021/04/06 12:31:14;;;;;;;0.75;0.55;;;5.80;74.20;;;;;;5034826;28;20520;-68
2021/04/06 12:33:40;;;;;;;1.38;0.68;;;6.30;73.70;;;;;;5034440;28;20466;-68
2021/04/06 12:36:06;;;;;;;2.17;0.82;;;6.90;72.90;;;;;;5034473;28;20026;-68
2021/04/06 12:38:31;;;;;;;0.60;0.60;;;7.10;72.10;;;;;;5034427;28;20053;-68
2021/04/06 12:40:57;;;;;;;1.27;0.82;;;7.10;72.50;;;;;;5032674;28;20013;-68
2021/04/06 12:43:23;;;;;;;1.77;0.63;;;7.10;72.60;;;;;;5032435;28;20051;-68
2021/04/06 12:45:49;;;;;;;1.55;0.93;;;7.40;72.60;;;;;;5034086;28;20029;-68
2021/04/06 12:48:14;;;;;;;2.75;0.88;;;8.00;71.30;;;;;;5034271;28;20103;-68
2021/04/06 12:50:40;;;;;;;1.90;1.10;;;8.10;70.70;;;;;;5034011;28;20033;-68
2021/04/06 12:53:05;;;;;;;0.98;0.88;;;7.50;71.20;;;;;;5034041;28;20029;-68
2021/04/06 12:55:31;;;;;;;0.70;0.70;;;6.60;72.60;;;;;;5033953;28;20032;-68
2021/04/06 12:57:57;;;;;;;0.63;0.60;;;5.30;74.90;;;;;;5033438;28;20120;-68
2021/04/06 13:00:23;;;;;;;0.50;0.50;;;4.30;77.30;;;;;;5032689;28;20053;-68
2021/04/06 13:02:50;;;;;;;1.35;0.43;;;3.80;78.40;;;;;;5033927;28;20029;-68
2021/04/06 13:05:16;;;;;;;1.25;0.50;;;3.70;78.60;;;;;;5033892;28;20093;-68
2021/04/06 13:07:43;;;;;;;4.22;0.63;;;3.80;78.10;;;;;;5033729;28;20036;-68
2021/04/06 13:10:10;;;;;;;0.57;0.57;;;3.90;77.30;;;;;;5033432;28;20029;-68